createdAt,value
2023-04-05T18:43:42.918Z,76.40
2023-04-05T18:46:18.051Z,77.60
2023-04-05T18:48:46.120Z,77.20
2023-04-05T18:51:14.102Z,77.00
2023-04-05T18:53:42.029Z,76.70
2023-04-05T18:56:10.241Z,76.80
2023-04-05T18:58:38.234Z,77.30
2023-04-05T19:01:09.230Z,77.40
2023-04-05T19:03:37.230Z,77.10
2023-04-05T19:06:05.389Z,77.20
2023-04-05T19:08:33.839Z,77.00
2023-04-05T19:11:01.786Z,76.90
2023-04-05T19:13:29.745Z,75.30
2023-04-05T19:15:58.793Z,75.20
2023-04-05T19:18:28.949Z,75.40
2023-04-05T19:20:59.857Z,75.50
2023-04-05T19:23:28.544Z,75.50
2023-04-05T19:25:57.242Z,75.80
2023-04-05T19:28:25.891Z,75.90
2023-04-05T19:30:54.590Z,76.10
2023-04-05T19:33:22.638Z,76.20
2023-04-05T19:35:52.503Z,76.40
2023-04-05T19:38:22.475Z,76.50
2023-04-05T19:40:50.865Z,76.40
2023-04-05T19:43:18.891Z,76.70
2023-04-05T19:45:47.063Z,76.80
2023-04-05T19:48:35.221Z,76.60
2023-04-05T19:51:07.151Z,76.90
2023-04-05T19:53:47.913Z,76.90
2023-04-05T19:56:20.280Z,77.00
2023-04-05T19:58:49.536Z,77.20
2023-04-05T20:01:36.301Z,76.90
2023-04-05T20:04:13.258Z,77.10
2023-04-05T20:06:43.175Z,77.10
2023-04-05T20:09:13.512Z,77.60
2023-04-05T20:11:42.120Z,77.60
2023-04-05T20:14:10.229Z,77.50
2023-04-05T20:16:38.992Z,76.90
2023-04-05T20:19:09.359Z,77.10
2023-04-05T20:21:38.729Z,77.40
2023-04-05T20:24:10.916Z,77.50
2023-04-05T20:26:38.905Z,77.60
2023-04-05T20:29:09.649Z,77.70
2023-04-05T20:31:39.956Z,78.10
2023-04-05T20:34:11.236Z,78.00
2023-04-05T20:36:44.182Z,78.30
2023-04-05T20:39:13.595Z,78.00
2023-04-05T20:41:41.790Z,77.90
2023-04-05T20:44:09.900Z,78.30
2023-04-05T20:46:38.194Z,78.40
2023-04-05T20:49:06.707Z,78.30
2023-04-05T20:51:35.130Z,78.50
2023-04-05T20:54:03.192Z,78.10
2023-04-05T20:56:32.650Z,78.40
2023-04-05T20:59:00.805Z,78.80
2023-04-05T21:01:28.872Z,78.40
2023-04-05T21:03:56.957Z,78.60
2023-04-05T21:06:24.947Z,78.70
2023-04-05T21:08:56.421Z,78.80
2023-04-05T21:11:24.398Z,79.50
2023-04-05T21:13:53.994Z,78.50
2023-04-05T21:16:22.100Z,78.20
2023-04-05T21:18:50.352Z,78.00
2023-04-05T21:21:18.307Z,77.70
2023-04-05T21:23:46.251Z,78.10
2023-04-05T21:26:14.197Z,77.50
2023-04-05T21:28:42.195Z,77.20
2023-04-05T21:31:11.761Z,77.00
2023-04-05T21:33:39.737Z,77.50
2023-04-05T21:36:08.045Z,77.50
2023-04-05T21:38:36.124Z,77.80
2023-04-05T21:41:04.110Z,77.80
2023-04-05T21:43:32.053Z,78.00
2023-04-05T21:46:00.002Z,78.30
2023-04-05T21:48:29.376Z,78.60
2023-04-05T21:50:57.360Z,78.60
2023-04-05T21:53:25.451Z,78.90
2023-04-05T21:55:53.759Z,78.80
2023-04-05T21:58:21.699Z,78.70
2023-04-05T22:00:53.517Z,78.30
